Time;durP1;ratioP1;P1;durP2;ratioP2;P2;SDS_P1;SDS_P2;PMS_P1;PMS_P2;Temp;Humidity;BMP_temperature;BMP_pressure;BME280_temperature;BME280_humidity;BME280_pressure;Samples;Min_cycle;Max_cycle;Signal;HPM_P1;HPM_P2
2021/12/24 00:00:32;;;;;;;3.30;1.92;;;;;;;;;;7392698;19;19998;-77
2021/12/24 00:02:57;;;;;;;4.88;2.10;;;;;;;;;;7390845;19;19999;-77
2021/12/24 00:05:23;;;;;;;1.90;1.25;;;;;;;;;;7390008;19;20418;-77
2021/12/24 00:07:48;;;;;;;3.70;1.80;;;;;;;;;;7390715;19;20382;-77
2021/12/24 00:10:14;;;;;;;2.20;1.40;;;;;;;;;;7390076;19;20054;-77
2021/12/24 00:12:45;;;;;;;2.35;1.63;;;;;;;;;;7390567;19;20029;-76
2021/12/24 00:15:46;;;;;;;2.95;1.42;;;;;;;;;;7393015;19;20403;-77
2021/12/24 00:18:04;;;;;;;2.53;1.35;;;;;;;;;;7389855;19;20003;-77
2021/12/24 00:21:43;;;;;;;2.85;1.45;;;;;;;;;;7390388;19;20003;-77
2021/12/24 00:37:05;;;;;;;2.00;1.05;;;;;;;;;;7390293;19;20026;-77
2021/12/24 00:39:30;;;;;;;2.25;1.33;;;;;;;;;;7389288;19;20002;-77
2021/12/24 00:41:56;;;;;;;2.22;1.25;;;;;;;;;;7389982;19;20076;-77
2021/12/24 00:44:21;;;;;;;4.13;1.40;;;;;;;;;;7389343;19;19994;-77
2021/12/24 00:46:46;;;;;;;3.70;1.60;;;;;;;;;;7387814;19;20006;-77
2021/12/24 00:49:12;;;;;;;2.80;1.30;;;;;;;;;;7388142;19;20358;-77
2021/12/24 00:52:07;;;;;;;2.65;1.23;;;;;;;;;;7392114;19;20037;-77
2021/12/24 00:57:19;;;;;;;2.17;0.90;;;;;;;;;;7389929;19;20048;-76
2021/12/24 00:59:44;;;;;;;1.50;1.05;;;;;;;;;;7389261;19;19994;-77
2021/12/24 01:02:09;;;;;;;3.65;1.55;;;;;;;;;;7389370;19;20760;-74
2021/12/24 01:04:35;;;;;;;1.20;1.10;;;;;;;;;;7388767;19;20066;-76
2021/12/24 01:07:00;;;;;;;2.85;1.20;;;;;;;;;;7393299;19;19990;-77
2021/12/24 01:09:25;;;;;;;2.45;1.10;;;;;;;;;;7396513;19;20097;-76
2021/12/24 01:11:51;;;;;;;2.45;1.30;;;;;;;;;;7396307;19;20015;-77
2021/12/24 01:14:16;;;;;;;1.83;1.05;;;;;;;;;;7394297;19;20058;-74
2021/12/24 01:16:50;;;;;;;1.80;1.10;;;;;;;;;;7393404;19;20002;-77
2021/12/24 01:19:21;;;;;;;1.92;1.45;;;;;;;;;;7396715;19;20457;-76
2021/12/24 01:22:26;;;;;;;3.78;1.20;;;;;;;;;;7396144;19;20087;-77
2021/12/24 01:24:51;;;;;;;2.53;1.30;;;;;;;;;;7395150;19;20492;-76
2021/12/24 01:27:34;;;;;;;1.65;1.25;;;;;;;;;;7395779;19;20462;-76
2021/12/24 01:37:50;;;;;;;2.97;1.10;;;;;;;;;;7395675;19;19999;-77
2021/12/24 01:38:25;;;;;;;3.05;1.13;;;;;;;;;;7395565;19;20009;-77
2021/12/24 01:43:23;;;;;;;2.30;1.13;;;;;;;;;;7395404;19;20094;-77
2021/12/24 01:45:51;;;;;;;2.13;1.30;;;;;;;;;;7393634;19;19998;-74
2021/12/24 01:48:16;;;;;;;3.03;1.25;;;;;;;;;;7395264;19;20433;-74
2021/12/24 01:50:42;;;;;;;2.75;1.17;;;;;;;;;;7395179;19;20690;-74
2021/12/24 01:53:09;;;;;;;2.28;1.50;;;;;;;;;;7394428;19;20066;-76
2021/12/24 01:55:36;;;;;;;1.83;1.05;;;;;;;;;;7393362;19;20002;-76
2021/12/24 01:58:02;;;;;;;3.50;1.30;;;;;;;;;;7394960;19;19998;-77
2021/12/24 02:00:36;;;;;;;1.55;0.90;;;;;;;;;;7394652;19;20005;-74
2021/12/24 02:03:03;;;;;;;2.38;1.13;;;;;;;;;;7394353;19;20353;-74
2021/12/24 02:05:31;;;;;;;2.75;1.17;;;;;;;;;;7393631;19;20003;-76
2021/12/24 02:07:57;;;;;;;4.32;1.25;;;;;;;;;;7398171;19;19994;-75
2021/12/24 02:10:23;;;;;;;2.50;1.20;;;;;;;;;;7394935;19;20002;-76
2021/12/24 02:12:49;;;;;;;1.70;1.20;;;;;;;;;;7394963;19;20005;-76
2021/12/24 02:29:15;;;;;;;2.50;1.17;;;;;;;;;;7396132;19;20006;-76
2021/12/24 02:31:41;;;;;;;1.70;1.10;;;;;;;;;;7396238;19;20012;-74
2021/12/24 02:34:06;;;;;;;1.60;0.90;;;;;;;;;;7392583;19;19995;-76
2021/12/24 02:36:32;;;;;;;2.58;1.23;;;;;;;;;;7391979;19;20331;-74
2021/12/24 02:38:57;;;;;;;1.70;1.00;;;;;;;;;;7393023;19;20003;-76
2021/12/24 02:41:23;;;;;;;2.33;1.20;;;;;;;;;;7393434;19;20036;-74
2021/12/24 02:43:49;;;;;;;2.08;0.95;;;;;;;;;;7392977;19;20013;-74
2021/12/24 02:46:27;;;;;;;2.67;0.88;;;;;;;;;;7391682;19;20002;-76
2021/12/24 02:54:03;;;;;;;5.85;1.50;;;;;;;;;;7391955;19;20257;-74
2021/12/24 02:56:31;;;;;;;2.60;1.23;;;;;;;;;;7391089;19;20003;-76
2021/12/24 02:59:00;;;;;;;4.18;1.00;;;;;;;;;;7392634;19;19998;-76
2021/12/24 03:01:29;;;;;;;2.03;1.00;;;;;;;;;;7393175;19;20014;-77
2021/12/24 03:03:55;;;;;;;1.10;0.68;;;;;;;;;;7393011;19;20005;-74
2021/12/24 03:06:26;;;;;;;2.30;1.10;;;;;;;;;;7391729;19;20010;-74
2021/12/24 03:08:52;;;;;;;1.00;0.75;;;;;;;;;;7392390;19;20354;-76
2021/12/24 03:11:17;;;;;;;1.95;1.15;;;;;;;;;;7392697;19;19994;-74
2021/12/24 03:13:43;;;;;;;1.92;1.00;;;;;;;;;;7391558;19;20456;-76
2021/12/24 03:16:09;;;;;;;1.50;1.02;;;;;;;;;;7390958;19;20005;-76
2021/12/24 03:18:37;;;;;;;0.98;0.70;;;;;;;;;;7394197;19;20014;-76
2021/12/24 03:21:13;;;;;;;1.77;1.05;;;;;;;;;;7395361;19;20478;-76
2021/12/24 03:23:42;;;;;;;1.58;0.85;;;;;;;;;;7391912;19;19994;-76
2021/12/24 03:26:11;;;;;;;2.05;1.00;;;;;;;;;;7390601;19;20010;-74
2021/12/24 03:28:36;;;;;;;2.42;1.13;;;;;;;;;;7391639;19;20006;-74
2021/12/24 03:31:04;;;;;;;1.70;0.85;;;;;;;;;;7391921;19;19994;-76
2021/12/24 03:33:29;;;;;;;1.65;1.20;;;;;;;;;;7391738;19;20078;-74
2021/12/24 03:35:55;;;;;;;3.20;1.00;;;;;;;;;;7390896;19;20442;-76
2021/12/24 03:38:21;;;;;;;1.25;0.88;;;;;;;;;;7391470;19;20007;-76
2021/12/24 03:40:46;;;;;;;2.25;1.00;;;;;;;;;;7392030;19;20003;-74
2021/12/24 03:43:11;;;;;;;1.55;1.05;;;;;;;;;;7391359;19;20414;-74
2021/12/24 03:45:45;;;;;;;2.78;1.05;;;;;;;;;;7390746;19;20036;-74
2021/12/24 03:56:23;;;;;;;1.33;0.70;;;;;;;;;;7390143;19;20017;-77
2021/12/24 03:58:48;;;;;;;2.20;1.00;;;;;;;;;;7390851;19;20462;-74
2021/12/24 04:01:14;;;;;;;1.42;0.80;;;;;;;;;;7394900;19;20426;-76
2021/12/24 04:03:39;;;;;;;1.90;0.80;;;;;;;;;;7390749;19;20005;-74
2021/12/24 04:06:04;;;;;;;0.73;0.57;;;;;;;;;;7389617;19;19998;-76
2021/12/24 04:08:31;;;;;;;1.65;0.90;;;;;;;;;;7392007;19;20009;-74
2021/12/24 04:10:56;;;;;;;1.65;0.73;;;;;;;;;;7390982;19;19999;-76
2021/12/24 04:13:21;;;;;;;1.75;0.90;;;;;;;;;;7389887;19;20009;-74
2021/12/24 04:15:46;;;;;;;0.60;0.60;;;;;;;;;;7389867;19;19998;-74
2021/12/24 04:18:14;;;;;;;1.33;0.70;;;;;;;;;;7388729;19;20085;-76
2021/12/24 04:26:08;;;;;;;0.63;0.60;;;;;;;;;;7389433;19;20114;-76
2021/12/24 04:28:34;;;;;;;2.33;1.33;;;;;;;;;;7390055;19;20357;-76
2021/12/24 04:31:01;;;;;;;0.77;0.77;;;;;;;;;;7390188;19;20022;-74
2021/12/24 04:33:32;;;;;;;1.33;0.63;;;;;;;;;;7389438;19;20003;-76
2021/12/24 04:36:32;;;;;;;1.02;0.93;;;;;;;;;;7388439;19;20002;-76
2021/12/24 04:39:11;;;;;;;1.70;1.00;;;;;;;;;;7389186;19;19999;-74
2021/12/24 05:03:41;;;;;;;3.60;0.90;;;;;;;;;;7403745;19;19999;-76
2021/12/24 05:06:15;;;;;;;2.42;0.80;;;;;;;;;;7401656;19;20119;-76
2021/12/24 05:08:49;;;;;;;2.17;1.40;;;;;;;;;;7402955;19;20014;-76
2021/12/24 05:11:16;;;;;;;1.65;0.82;;;;;;;;;;7403530;19;20078;-76
2021/12/24 05:13:41;;;;;;;2.97;0.80;;;;;;;;;;7402474;19;20003;-76
2021/12/24 05:16:45;;;;;;;2.53;0.88;;;;;;;;;;7402006;19;20009;-76
2021/12/24 05:21:33;;;;;;;2.00;1.23;;;;;;;;;;7403097;19;20003;-76
2021/12/24 05:24:14;;;;;;;3.25;0.75;;;;;;;;;;7402338;19;20083;-76
2021/12/24 05:27:02;;;;;;;2.70;0.95;;;;;;;;;;7401118;19;20028;-76
2021/12/24 05:29:28;;;;;;;1.15;0.77;;;;;;;;;;7402865;19;19998;-76
2021/12/24 05:31:53;;;;;;;2.05;1.05;;;;;;;;;;7402584;19;20123;-76
2021/12/24 05:34:19;;;;;;;1.00;0.77;;;;;;;;;;7400973;19;20001;-76
2021/12/24 05:36:46;;;;;;;2.10;0.95;;;;;;;;;;7400212;19;20458;-76
2021/12/24 05:39:12;;;;;;;1.08;0.98;;;;;;;;;;7401840;19;20006;-76
2021/12/24 05:41:39;;;;;;;1.42;0.90;;;;;;;;;;7402314;19;19999;-76
2021/12/24 05:44:04;;;;;;;0.88;0.88;;;;;;;;;;7402470;19;20360;-76
2021/12/24 05:46:30;;;;;;;3.00;0.98;;;;;;;;;;7400364;19;20125;-76
2021/12/24 05:48:56;;;;;;;1.48;1.00;;;;;;;;;;7402582;19;20368;-76
2021/12/24 05:51:21;;;;;;;2.47;1.10;;;;;;;;;;7405489;19;20009;-76
2021/12/24 05:53:47;;;;;;;1.45;1.00;;;;;;;;;;7392529;19;19999;-76
2021/12/24 05:56:12;;;;;;;3.53;1.10;;;;;;;;;;7393295;19;20027;-76
2021/12/24 05:58:38;;;;;;;2.88;1.15;;;;;;;;;;7394779;19;20034;-76
2021/12/24 06:01:03;;;;;;;1.92;1.15;;;;;;;;;;7394589;19;20012;-76
2021/12/24 06:03:29;;;;;;;2.03;1.10;;;;;;;;;;7394456;19;20476;-76
2021/12/24 06:05:55;;;;;;;2.60;1.15;;;;;;;;;;7393118;19;19998;-76
2021/12/24 06:08:20;;;;;;;2.10;1.08;;;;;;;;;;7394105;19;20083;-76
2021/12/24 06:10:45;;;;;;;2.30;1.27;;;;;;;;;;7394857;19;19995;-76
2021/12/24 06:13:10;;;;;;;1.45;0.90;;;;;;;;;;7394474;19;20003;-76
2021/12/24 06:15:43;;;;;;;1.50;1.00;;;;;;;;;;7393974;19;20003;-76
2021/12/24 06:18:19;;;;;;;1.90;1.25;;;;;;;;;;7393955;19;19999;-76
2021/12/24 06:20:45;;;;;;;1.00;0.90;;;;;;;;;;7394219;19;20005;-76
2021/12/24 06:23:10;;;;;;;2.20;1.20;;;;;;;;;;7393639;19;19998;-76
2021/12/24 06:25:36;;;;;;;1.40;1.27;;;;;;;;;;7392636;19;20029;-76
2021/12/24 06:28:01;;;;;;;1.88;1.00;;;;;;;;;;7393624;19;20010;-76
2021/12/24 06:30:29;;;;;;;1.35;1.05;;;;;;;;;;7393662;19;20001;-76
2021/12/24 06:32:55;;;;;;;1.30;0.93;;;;;;;;;;7394361;19;20002;-76
2021/12/24 06:35:21;;;;;;;5.20;1.35;;;;;;;;;;7390961;19;20003;-76
2021/12/24 06:37:46;;;;;;;3.40;1.15;;;;;;;;;;7395418;19;20003;-76
2021/12/24 06:40:11;;;;;;;1.42;1.10;;;;;;;;;;7396419;19;20028;-76
2021/12/24 06:42:37;;;;;;;1.83;1.00;;;;;;;;;;7393305;19;19994;-76
2021/12/24 06:45:03;;;;;;;1.90;1.25;;;;;;;;;;7392965;19;20039;-76
2021/12/24 06:47:28;;;;;;;1.77;0.85;;;;;;;;;;7393013;19;20002;-76
2021/12/24 06:49:53;;;;;;;3.33;1.55;;;;;;;;;;7392944;19;20010;-76
2021/12/24 06:52:19;;;;;;;1.88;1.02;;;;;;;;;;7393077;19;19995;-76
2021/12/24 06:54:44;;;;;;;1.83;1.05;;;;;;;;;;7391564;19;20010;-76
2021/12/24 06:57:15;;;;;;;2.33;1.40;;;;;;;;;;7393280;19;20321;-76
2021/12/24 06:59:40;;;;;;;2.20;1.10;;;;;;;;;;7393133;19;20003;-76
2021/12/24 07:02:06;;;;;;;2.22;1.40;;;;;;;;;;7393172;19;20447;-76
2021/12/24 07:04:31;;;;;;;2.05;1.13;;;;;;;;;;7391476;19;20339;-76
2021/12/24 07:06:56;;;;;;;2.22;1.10;;;;;;;;;;7392503;19;20054;-76
2021/12/24 07:09:22;;;;;;;1.27;1.05;;;;;;;;;;7392344;19;20009;-76
2021/12/24 07:11:48;;;;;;;2.78;1.00;;;;;;;;;;7392616;19;20019;-76
2021/12/24 07:14:14;;;;;;;1.92;1.30;;;;;;;;;;7391197;19;19995;-76
2021/12/24 07:16:40;;;;;;;4.47;1.30;;;;;;;;;;7390514;19;19999;-76
2021/12/24 07:19:05;;;;;;;1.73;1.10;;;;;;;;;;7392117;19;19994;-76
2021/12/24 07:21:30;;;;;;;2.85;1.50;;;;;;;;;;7392744;19;19998;-76
2021/12/24 07:23:55;;;;;;;3.15;1.42;;;;;;;;;;7392014;19;20010;-76
2021/12/24 07:26:21;;;;;;;2.83;1.15;;;;;;;;;;7390607;19;20002;-76
2021/12/24 07:28:47;;;;;;;1.38;1.05;;;;;;;;;;7392028;19;20453;-76
2021/12/24 07:31:13;;;;;;;1.67;1.10;;;;;;;;;;7391622;19;19994;-76
2021/12/24 07:33:38;;;;;;;2.17;1.10;;;;;;;;;;7391141;19;19986;-76
2021/12/24 07:36:04;;;;;;;3.92;1.10;;;;;;;;;;7390322;19;20462;-76
2021/12/24 07:38:29;;;;;;;2.08;1.10;;;;;;;;;;7391819;19;19995;-77
2021/12/24 07:40:54;;;;;;;3.00;1.30;;;;;;;;;;7391632;19;20002;-76
2021/12/24 07:43:20;;;;;;;2.30;1.10;;;;;;;;;;7391263;19;20022;-76
2021/12/24 07:45:46;;;;;;;1.65;1.13;;;;;;;;;;7389066;19;20007;-76
2021/12/24 07:48:15;;;;;;;1.83;1.10;;;;;;;;;;7390483;19;20010;-77
2021/12/24 07:53:13;;;;;;;1.70;1.20;;;;;;;;;;7390803;19;20007;-76
2021/12/24 07:55:39;;;;;;;2.85;1.20;;;;;;;;;;7392718;19;20466;-76
2021/12/24 07:58:07;;;;;;;1.85;1.10;;;;;;;;;;7390432;19;20027;-77
2021/12/24 08:00:33;;;;;;;2.63;1.50;;;;;;;;;;7390551;19;19995;-76
2021/12/24 08:02:58;;;;;;;2.38;1.55;;;;;;;;;;7390442;19;20002;-76
2021/12/24 08:05:25;;;;;;;2.30;1.27;;;;;;;;;;7390032;19;20002;-76
2021/12/24 08:07:53;;;;;;;4.93;1.50;;;;;;;;;;7390718;19;19998;-76
2021/12/24 08:10:18;;;;;;;2.78;1.75;;;;;;;;;;7390106;19;20103;-77
2021/12/24 08:12:44;;;;;;;3.22;1.77;;;;;;;;;;7390437;19;20490;-77
2021/12/24 08:15:09;;;;;;;2.63;1.40;;;;;;;;;;7388089;19;19999;-77
2021/12/24 08:17:35;;;;;;;3.28;1.63;;;;;;;;;;7389569;19;19994;-76
2021/12/24 08:20:01;;;;;;;3.25;1.63;;;;;;;;;;7392700;19;20022;-76
2021/12/24 08:22:26;;;;;;;6.10;1.75;;;;;;;;;;7390265;19;19999;-77
2021/12/24 08:24:52;;;;;;;4.65;1.50;;;;;;;;;;7389230;19;20025;-77
2021/12/24 08:27:18;;;;;;;3.65;1.50;;;;;;;;;;7390597;19;20006;-77
2021/12/24 08:29:44;;;;;;;2.60;1.77;;;;;;;;;;7389967;19;20003;-77
2021/12/24 08:32:09;;;;;;;4.00;1.80;;;;;;;;;;7390673;19;19995;-77
2021/12/24 08:34:35;;;;;;;2.67;1.65;;;;;;;;;;7388861;19;20006;-77
2021/12/24 08:37:01;;;;;;;1.95;1.30;;;;;;;;;;7390104;19;20002;-77
2021/12/24 08:39:26;;;;;;;2.90;1.63;;;;;;;;;;7388149;19;19999;-78
2021/12/24 08:41:54;;;;;;;2.97;1.40;;;;;;;;;;7389745;19;20525;-77
2021/12/24 08:44:21;;;;;;;2.13;1.30;;;;;;;;;;7389241;19;20005;-77
2021/12/24 08:46:47;;;;;;;1.67;1.30;;;;;;;;;;7387519;19;20031;-77
2021/12/24 08:49:12;;;;;;;3.13;1.50;;;;;;;;;;7388550;19;19998;-77
2021/12/24 08:51:37;;;;;;;2.25;1.42;;;;;;;;;;7387235;19;20003;-77
2021/12/24 08:54:03;;;;;;;5.78;1.98;;;;;;;;;;7387782;19;20028;-77
2021/12/24 08:56:28;;;;;;;2.13;1.27;;;;;;;;;;7387630;19;20013;-77
2021/12/24 08:58:53;;;;;;;3.17;1.58;;;;;;;;;;7388169;19;20003;-77
2021/12/24 09:01:19;;;;;;;2.25;1.50;;;;;;;;;;7389014;19;20054;-77
2021/12/24 09:03:44;;;;;;;9.68;4.05;;;;;;;;;;7389128;19;20002;-77
2021/12/24 09:06:09;;;;;;;6.93;3.35;;;;;;;;;;7387521;19;20009;-77
2021/12/24 09:08:35;;;;;;;3.90;1.67;;;;;;;;;;7391600;19;20003;-77
2021/12/24 09:11:02;;;;;;;3.30;2.47;;;;;;;;;;7391935;19;20338;-77
2021/12/24 09:13:27;;;;;;;3.22;2.17;;;;;;;;;;7388337;19;19995;-76
2021/12/24 09:15:53;;;;;;;2.63;1.60;;;;;;;;;;7387376;19;20092;-77
2021/12/24 09:18:20;;;;;;;2.63;1.25;;;;;;;;;;7388020;19;20003;-76
2021/12/24 09:20:45;;;;;;;1.77;1.40;;;;;;;;;;7388460;19;20017;-77
2021/12/24 09:23:11;;;;;;;2.55;1.40;;;;;;;;;;7387703;19;20466;-77
2021/12/24 09:25:37;;;;;;;4.18;1.20;;;;;;;;;;7387214;19;20092;-77
2021/12/24 09:28:04;;;;;;;3.72;1.63;;;;;;;;;;7392663;19;20304;-77
2021/12/24 09:30:30;;;;;;;5.03;1.35;;;;;;;;;;7395624;19;20007;-76
2021/12/24 09:32:56;;;;;;;4.82;1.42;;;;;;;;;;7396116;19;20683;-77
2021/12/24 09:35:22;;;;;;;2.13;1.38;;;;;;;;;;7392743;19;20486;-77
2021/12/24 09:37:48;;;;;;;3.72;1.60;;;;;;;;;;7395318;19;20054;-76
2021/12/24 09:40:14;;;;;;;2.38;1.33;;;;;;;;;;7394036;19;19998;-76
2021/12/24 09:42:40;;;;;;;1.88;1.20;;;;;;;;;;7395303;19;20480;-76
2021/12/24 09:45:07;;;;;;;1.98;1.25;;;;;;;;;;7394429;19;20010;-77
2021/12/24 09:47:32;;;;;;;2.47;1.10;;;;;;;;;;7395145;19;20010;-77
2021/12/24 09:49:58;;;;;;;1.67;1.17;;;;;;;;;;7394397;19;20006;-76
2021/12/24 09:52:24;;;;;;;3.85;1.10;;;;;;;;;;7394917;19;20283;-76
2021/12/24 09:54:50;;;;;;;4.97;1.17;;;;;;;;;;7392290;19;19994;-77
2021/12/24 09:57:16;;;;;;;1.88;1.27;;;;;;;;;;7396783;19;20509;-77
2021/12/24 09:59:41;;;;;;;2.50;1.10;;;;;;;;;;7398410;19;20356;-77
2021/12/24 10:02:15;;;;;;;1.92;1.23;;;;;;;;;;7394261;19;20031;-77
2021/12/24 10:04:42;;;;;;;2.92;1.02;;;;;;;;;;7394092;19;20474;-77
2021/12/24 10:07:11;;;;;;;2.25;1.10;;;;;;;;;;7394422;19;20007;-77
2021/12/24 10:09:39;;;;;;;1.50;0.98;;;;;;;;;;7393029;19;20003;-76
2021/12/24 10:12:22;;;;;;;1.60;1.20;;;;;;;;;;7394640;19;20346;-76
2021/12/24 10:14:50;;;;;;;3.10;1.17;;;;;;;;;;7392419;19;19998;-76
2021/12/24 10:17:20;;;;;;;1.58;0.90;;;;;;;;;;7394712;19;19998;-77
2021/12/24 10:19:52;;;;;;;1.83;0.95;;;;;;;;;;7393306;19;20020;-76
2021/12/24 10:22:17;;;;;;;2.45;1.02;;;;;;;;;;7394075;19;20011;-76
2021/12/24 10:24:57;;;;;;;0.82;0.57;;;;;;;;;;7392788;19;20001;-77
2021/12/24 10:27:31;;;;;;;2.75;1.20;;;;;;;;;;7393736;19;19995;-76
2021/12/24 10:29:57;;;;;;;3.10;1.00;;;;;;;;;;7393086;19;19994;-76
2021/12/24 10:32:22;;;;;;;2.10;1.20;;;;;;;;;;7393370;19;20017;-77
2021/12/24 10:34:47;;;;;;;1.77;1.10;;;;;;;;;;7391435;19;19998;-77
2021/12/24 10:37:22;;;;;;;1.60;1.05;;;;;;;;;;7393183;19;20007;-77
2021/12/24 10:39:58;;;;;;;2.53;1.20;;;;;;;;;;7390322;19;20374;-76
2021/12/24 10:42:35;;;;;;;1.45;1.20;;;;;;;;;;7392993;19;20436;-76
2021/12/24 10:45:03;;;;;;;1.38;1.10;;;;;;;;;;7392698;19;20027;-76
2021/12/24 10:47:33;;;;;;;1.58;1.02;;;;;;;;;;7396627;19;20010;-77
2021/12/24 10:53:16;;;;;;;1.42;1.00;;;;;;;;;;7393100;19;19994;-76
2021/12/24 10:55:53;;;;;;;4.95;2.03;;;;;;;;;;7391693;19;20461;-77
2021/12/24 10:58:21;;;;;;;1.27;1.00;;;;;;;;;;7391631;19;20066;-77
2021/12/24 11:00:55;;;;;;;2.17;1.38;;;;;;;;;;7393312;19;19994;-77
2021/12/24 11:03:23;;;;;;;2.40;1.10;;;;;;;;;;7392112;19;19998;-76
2021/12/24 11:05:54;;;;;;;1.83;1.40;;;;;;;;;;7391009;19;20020;-77
2021/12/24 11:08:26;;;;;;;2.75;1.08;;;;;;;;;;7390937;19;20006;-77
2021/12/24 11:10:57;;;;;;;1.77;1.35;;;;;;;;;;7392823;19;20005;-77
2021/12/24 11:13:39;;;;;;;2.35;1.60;;;;;;;;;;7392006;19;20330;-77
2021/12/24 11:16:07;;;;;;;2.55;1.23;;;;;;;;;;7390806;19;20003;-77
2021/12/24 11:18:35;;;;;;;2.33;1.10;;;;;;;;;;7391682;19;19991;-76
2021/12/24 11:21:02;;;;;;;1.88;1.00;;;;;;;;;;7391834;19;20111;-76
2021/12/24 11:23:33;;;;;;;2.88;1.00;;;;;;;;;;7391097;19;19994;-76
2021/12/24 11:26:04;;;;;;;1.30;0.90;;;;;;;;;;7390327;19;20002;-77
2021/12/24 11:28:31;;;;;;;4.65;1.35;;;;;;;;;;7390895;19;20025;-76
2021/12/24 11:31:00;;;;;;;2.33;1.27;;;;;;;;;;7391301;19;19999;-77
2021/12/24 11:33:28;;;;;;;1.08;0.93;;;;;;;;;;7391145;19;20006;-77
2021/12/24 11:35:54;;;;;;;2.08;1.25;;;;;;;;;;7392111;19;20396;-77
2021/12/24 11:38:25;;;;;;;2.67;1.30;;;;;;;;;;7393365;19;20010;-77
2021/12/24 11:40:54;;;;;;;2.00;0.98;;;;;;;;;;7391229;19;20002;-76
2021/12/24 11:43:21;;;;;;;3.85;1.20;;;;;;;;;;7390804;19;20029;-77
2021/12/24 11:45:47;;;;;;;3.72;1.33;;;;;;;;;;7389985;19;20426;-77
2021/12/24 11:48:12;;;;;;;3.40;0.90;;;;;;;;;;7390050;19;20001;-77
2021/12/24 11:50:39;;;;;;;1.52;1.15;;;;;;;;;;7389012;19;20011;-77
2021/12/24 11:53:09;;;;;;;1.58;0.90;;;;;;;;;;7390037;19;19995;-77
2021/12/24 11:55:40;;;;;;;2.33;1.60;;;;;;;;;;7389661;19;20002;-77
2021/12/24 11:58:09;;;;;;;1.92;0.90;;;;;;;;;;7389191;19;20002;-77
2021/12/24 12:00:40;;;;;;;2.90;1.30;;;;;;;;;;7390490;19;20076;-77
2021/12/24 12:03:08;;;;;;;2.67;0.98;;;;;;;;;;7390287;19;20062;-77
2021/12/24 12:05:37;;;;;;;6.18;1.00;;;;;;;;;;7392935;19;19998;-77
2021/12/24 12:08:28;;;;;;;1.70;0.93;;;;;;;;;;7388234;19;20315;-77
2021/12/24 12:10:56;;;;;;;0.93;0.82;;;;;;;;;;7390218;19;19994;-76
2021/12/24 12:13:36;;;;;;;2.08;0.95;;;;;;;;;;7389929;19;20009;-77
2021/12/24 12:16:01;;;;;;;0.80;0.75;;;;;;;;;;7389055;19;20447;-77
2021/12/24 12:18:29;;;;;;;1.17;0.80;;;;;;;;;;7389719;19;19991;-76
2021/12/24 12:21:08;;;;;;;3.15;1.83;;;;;;;;;;7389894;19;20340;-77
2021/12/24 12:24:03;;;;;;;2.88;1.05;;;;;;;;;;7389560;19;20588;-77
2021/12/24 12:26:38;;;;;;;2.30;0.80;;;;;;;;;;7391413;19;20005;-77
2021/12/24 12:29:26;;;;;;;1.98;1.10;;;;;;;;;;7392512;19;20324;-76
2021/12/24 12:31:55;;;;;;;1.92;0.85;;;;;;;;;;7389561;19;20406;-77
2021/12/24 12:34:39;;;;;;;1.75;1.10;;;;;;;;;;7388888;19;20010;-76
2021/12/24 12:37:23;;;;;;;1.42;0.73;;;;;;;;;;7389786;19;19997;-76
2021/12/24 12:40:02;;;;;;;3.70;1.17;;;;;;;;;;7388540;19;20346;-76
2021/12/24 12:42:53;;;;;;;2.03;1.20;;;;;;;;;;7389788;19;19998;-76
2021/12/24 12:45:21;;;;;;;1.58;0.93;;;;;;;;;;7388998;19;19995;-77
2021/12/24 12:47:52;;;;;;;2.65;1.40;;;;;;;;;;7387734;19;20007;-76
2021/12/24 12:50:18;;;;;;;1.05;0.80;;;;;;;;;;7389035;19;19999;-76
2021/12/24 12:52:44;;;;;;;1.55;1.05;;;;;;;;;;7389127;19;19994;-76
2021/12/24 12:55:28;;;;;;;4.60;1.35;;;;;;;;;;7386799;19;20002;-77
2021/12/24 12:58:23;;;;;;;5.88;1.30;;;;;;;;;;7389245;19;19994;-76
2021/12/24 13:01:04;;;;;;;1.10;0.90;;;;;;;;;;7389195;19;19995;-76
2021/12/24 13:03:30;;;;;;;1.48;0.95;;;;;;;;;;7394345;19;20062;-77
2021/12/24 13:06:06;;;;;;;1.45;1.00;;;;;;;;;;7394922;19;20010;-76
2021/12/24 13:08:35;;;;;;;1.52;1.08;;;;;;;;;;7395111;19;20106;-77
2021/12/24 13:11:03;;;;;;;0.90;0.82;;;;;;;;;;7396834;19;19994;-76
2021/12/24 13:13:29;;;;;;;1.88;0.98;;;;;;;;;;7396193;19;20015;-77
2021/12/24 13:15:55;;;;;;;1.40;0.90;;;;;;;;;;7397645;19;19997;-76
2021/12/24 13:18:30;;;;;;;1.70;1.00;;;;;;;;;;7398999;19;19995;-76
2021/12/24 13:23:38;;;;;;;2.47;1.60;;;;;;;;;;7395643;19;20358;-77
2021/12/24 13:26:14;;;;;;;1.80;0.90;;;;;;;;;;7393797;19;20462;-77
2021/12/24 13:28:54;;;;;;;;;;;;;;;;;;7395867;19;20058;-75
2021/12/24 13:31:19;;;;;;;1.33;1.02;;;;;;;;;;7395967;19;19910;-76
2021/12/24 13:33:48;;;;;;;1.83;1.10;;;;;;;;;;7395575;19;20018;-76
2021/12/24 13:36:13;;;;;;;3.38;1.13;;;;;;;;;;7394004;19;20036;-76
2021/12/24 13:38:39;;;;;;;3.72;1.23;;;;;;;;;;7394140;19;20342;-77
2021/12/24 13:41:04;;;;;;;1.90;0.90;;;;;;;;;;7395455;19;19998;-77
2021/12/24 13:43:35;;;;;;;5.15;1.23;;;;;;;;;;7395073;19;19994;-76
2021/12/24 13:46:07;;;;;;;2.78;0.93;;;;;;;;;;7393851;19;19998;-77
2021/12/24 13:48:45;;;;;;;1.27;1.10;;;;;;;;;;7394413;19;20016;-76
2021/12/24 13:56:39;;;;;;;1.73;1.08;;;;;;;;;;7393851;19;20485;-76
2021/12/24 13:59:06;;;;;;;1.23;0.93;;;;;;;;;;7394246;19;19995;-77
2021/12/24 14:01:33;;;;;;;1.40;0.90;;;;;;;;;;7394635;19;20472;-76
2021/12/24 14:04:00;;;;;;;2.28;0.85;;;;;;;;;;7395724;19;20002;-77
2021/12/24 14:06:37;;;;;;;2.90;1.00;;;;;;;;;;7396400;19;20656;-76
2021/12/24 14:09:22;;;;;;;2.05;1.20;;;;;;;;;;7394952;19;20006;-76
2021/12/24 14:11:51;;;;;;;2.63;1.25;;;;;;;;;;7393215;19;19998;-77
2021/12/24 14:14:25;;;;;;;2.05;1.25;;;;;;;;;;7390682;19;19995;-76
2021/12/24 14:17:34;;;;;;;4.97;1.75;;;;;;;;;;7391970;19;19999;-76
2021/12/24 14:22:25;;;;;;;2.40;1.35;;;;;;;;;;7394129;19;19995;-77
2021/12/24 14:25:00;;;;;;;1.55;1.15;;;;;;;;;;7392815;19;20442;-76
2021/12/24 14:27:30;;;;;;;2.55;1.23;;;;;;;;;;7393766;19;20002;-77
2021/12/24 14:30:02;;;;;;;3.67;1.23;;;;;;;;;;7393184;19;20003;-76
2021/12/24 14:32:39;;;;;;;1.67;1.23;;;;;;;;;;7393526;19;20002;-76
2021/12/24 14:35:23;;;;;;;3.10;1.20;;;;;;;;;;7391626;19;20005;-77
2021/12/24 14:38:13;;;;;;;1.20;1.10;;;;;;;;;;7393330;19;19990;-77
2021/12/24 14:40:39;;;;;;;2.15;1.20;;;;;;;;;;7393762;19;20352;-77
2021/12/24 14:43:15;;;;;;;1.58;1.10;;;;;;;;;;7393093;19;20054;-78
2021/12/24 14:45:44;;;;;;;1.25;1.10;;;;;;;;;;7392570;19;19998;-77
2021/12/24 14:48:25;;;;;;;1.90;1.27;;;;;;;;;;7392747;19;20018;-78
2021/12/24 14:50:58;;;;;;;1.98;1.50;;;;;;;;;;7394000;19;19999;-77
2021/12/24 14:53:29;;;;;;;1.40;1.05;;;;;;;;;;7393425;19;20022;-77
2021/12/24 14:55:57;;;;;;;2.03;1.00;;;;;;;;;;7394271;19;20110;-77
2021/12/24 14:58:31;;;;;;;1.65;1.20;;;;;;;;;;7392204;19;20098;-77
2021/12/24 15:00:58;;;;;;;1.88;1.10;;;;;;;;;;7392727;19;20005;-77
2021/12/24 15:03:34;;;;;;;1.48;1.15;;;;;;;;;;7392301;19;19999;-77
2021/12/24 15:06:00;;;;;;;0.95;0.88;;;;;;;;;;7391372;19;19995;-77
2021/12/24 15:08:28;;;;;;;1.95;1.40;;;;;;;;;;7392262;19;20009;-77
2021/12/24 15:10:57;;;;;;;1.55;1.13;;;;;;;;;;7392788;19;19994;-77
2021/12/24 15:13:25;;;;;;;1.90;1.30;;;;;;;;;;7392715;19;20366;-77
2021/12/24 15:15:51;;;;;;;2.60;1.27;;;;;;;;;;7391351;19;20508;-78
2021/12/24 15:18:17;;;;;;;1.38;1.20;;;;;;;;;;7390042;19;20500;-77
2021/12/24 15:20:43;;;;;;;3.22;1.20;;;;;;;;;;7391890;19;19990;-77
2021/12/24 15:23:08;;;;;;;2.10;1.27;;;;;;;;;;7391226;19;20545;-77
2021/12/24 15:25:34;;;;;;;2.22;1.73;;;;;;;;;;7390402;19;20052;-77
2021/12/24 15:28:07;;;;;;;2.10;1.38;;;;;;;;;;7391545;19;20007;-77
2021/12/24 15:30:32;;;;;;;1.80;1.20;;;;;;;;;;7391873;19;20011;-77
2021/12/24 15:32:57;;;;;;;2.92;1.50;;;;;;;;;;7390300;19;19995;-77
2021/12/24 15:35:23;;;;;;;2.38;1.73;;;;;;;;;;7390679;19;20058;-77
2021/12/24 15:37:48;;;;;;;1.88;1.17;;;;;;;;;;7392084;19;20518;-77
2021/12/24 15:40:14;;;;;;;1.58;1.17;;;;;;;;;;7391046;19;19995;-77
2021/12/24 15:42:39;;;;;;;1.67;1.05;;;;;;;;;;7391492;19;20351;-77
2021/12/24 15:45:05;;;;;;;5.72;1.40;;;;;;;;;;7394595;19;20009;-77
2021/12/24 15:47:30;;;;;;;2.30;1.23;;;;;;;;;;7395345;19;19994;-77
2021/12/24 15:49:55;;;;;;;1.67;1.08;;;;;;;;;;7390504;19;20019;-77
2021/12/24 15:52:21;;;;;;;1.77;0.88;;;;;;;;;;7391497;19;20025;-77
2021/12/24 15:54:46;;;;;;;2.17;0.95;;;;;;;;;;7389335;19;19990;-77
2021/12/24 15:57:12;;;;;;;1.38;1.00;;;;;;;;;;7391027;19;20002;-77
2021/12/24 15:59:37;;;;;;;2.30;1.38;;;;;;;;;;7390447;19;20011;-77
2021/12/24 16:02:03;;;;;;;2.65;1.63;;;;;;;;;;7391243;19;19990;-77
2021/12/24 16:04:29;;;;;;;4.13;2.10;;;;;;;;;;7390530;19;20307;-77
2021/12/24 16:06:54;;;;;;;2.80;1.42;;;;;;;;;;7388947;19;19999;-78
2021/12/24 16:09:21;;;;;;;2.13;1.35;;;;;;;;;;7388960;19;20003;-78
2021/12/24 16:11:48;;;;;;;1.77;1.20;;;;;;;;;;7395274;19;20020;-78
2021/12/24 16:14:13;;;;;;;1.50;1.10;;;;;;;;;;7389743;19;19991;-76
2021/12/24 16:16:44;;;;;;;4.13;1.17;;;;;;;;;;7389149;19;20465;-78
2021/12/24 16:19:12;;;;;;;3.33;1.55;;;;;;;;;;7390287;19;19998;-75
2021/12/24 16:21:38;;;;;;;1.73;1.17;;;;;;;;;;7390297;19;20005;-78
2021/12/24 16:24:05;;;;;;;1.83;1.30;;;;;;;;;;7389196;19;19987;-77
2021/12/24 16:26:30;;;;;;;1.55;1.10;;;;;;;;;;7387025;19;20494;-77
2021/12/24 16:28:55;;;;;;;1.65;1.20;;;;;;;;;;7389736;19;19991;-77
2021/12/24 16:31:21;;;;;;;2.53;1.70;;;;;;;;;;7389833;19;20011;-77